Observations for LONDON GATWICK ARPT, United Kingdom (EGKK)

EGKK 130920Z 08006KT CAVOK 01/00 Q1016  
EGKK 130850Z 08004KT CAVOK M00/M01 Q1016
EGKK 130820Z 07005KT CAVOK M02/M02 Q1016
EGKK 130750Z 07005KT CAVOK M02/M02 Q1016
EGKK 130720Z 07006KT 6000 FEW028 M01/M02 Q1016  
EGKK 130650Z 06004KT 5000 BR NSC M01/M02 Q1016  
EGKK 130620Z 08004KT 5000 BR NSC M01/M01 Q1015  
EGKK 130550Z 07007KT 4200 BR FEW027 M01/M01 Q1015   
EGKK 130520Z 07005KT 5000 BR FEW024 M01/M01 Q1016   
EGKK 130450Z 07008KT 5000 BR FEW026 M00/M00 Q1016   
EGKK 130420Z 07008KT 5000 BR FEW024 M00/M01 Q1016   
EGKK 130350Z 07008KT 5000 BR FEW030 M00/M00 Q1016   
EGKK 130320Z 07007KT 5000 BR FEW023 M01/M01 Q1016   
EGKK 130250Z 07003KT 7000 FEW021 SCT028 00/M00 Q1017
EGKK 130220Z 06006KT 8000 FEW022 00/M01 Q1017   
EGKK 130150Z 07006KT 8000 BKN020 01/00 Q1017
EGKK 130120Z 09007KT 9999 BKN020 01/00 Q1017
EGKK 130050Z 08006KT 9000 SCT020 M00/M01 Q1018  
EGKK 130020Z 07006KT 9000 FEW021 M01/M02 Q1018  
EGKK 122350Z 08005KT 9999 FEW024 M01/M02 Q1018  
EGKK 122320Z 07005KT 9000 NSC M02/M03 Q1018 
EGKK 122250Z 07005KT CAVOK M01/M02 Q1018
EGKK 122220Z 07004KT CAVOK M01/M02 Q1018
EGKK 122150Z 07007KT CAVOK M02/M03 Q1018
EGKK 122120Z 08007KT CAVOK M01/M02 Q1019
EGKK 122050Z 07006KT CAVOK M02/M03 Q1019
EGKK 122020Z 07006KT CAVOK M01/M03 Q1019
EGKK 121950Z 07005KT 9999 FEW040 M01/M03 Q1020  
EGKK 121920Z 07004KT CAVOK 00/M02 Q1020 
EGKK 121850Z 09005KT CAVOK 01/M02 Q1020 
EGKK 121820Z 09005KT CAVOK 01/M02 Q1020 
EGKK 121750Z 08005KT CAVOK 01/M02 Q1020 
EGKK 121720Z 09004KT CAVOK 02/M02 Q1021 
EGKK 121650Z 11004KT CAVOK 04/M02 Q1021 
EGKK 121620Z 12006KT CAVOK 04/M02 Q1021 
EGKK 121550Z 12008KT CAVOK 05/M01 Q1021 
EGKK 121520Z 12008KT 9999 FEW028 06/M01 Q1021   
EGKK 121450Z 12010KT 080V150 9999 FEW032 06/M01 Q1021   
EGKK 121420Z 13009KT 9999 FEW031 07/M01 Q1021   
EGKK 121350Z 14010KT 110V170 9999 FEW030 06/M00 Q1022   
EGKK 121320Z 13011KT 110V170 9999 FEW030 06/M00 Q1022   
EGKK 121250Z 13007KT 100V170 9999 SCT031 07/01 Q1022
EGKK 121220Z 13010KT 9999 FEW025 BKN034 07/01 Q1022 
EGKK 121150Z 14009KT 100V180 9999 FEW025 BKN032 07/02 Q1022 
EGKK 121120Z 13009KT 100V160 9999 FEW024 SCT032 07/03 Q1022 
EGKK 121050Z 13008KT 070V160 9999 FEW023 08/03 Q1022
EGKK 121020Z 14008KT 100V170 9999 FEW018 08/03 Q1022
EGKK 120950Z 12007KT 9999 BKN041 07/04 Q1022
EGKK 120920Z 12006KT 100V160 9999 FEW021 BKN032 07/05 Q1023 
EGKK 120850Z 13006KT 9999 BKN031 07/05 Q1023